Hatboro, PA

7:15 PM EDT on September 23, 2014 (GMT -0400)
HorshamWeather.Com | Change Station
CLOSE
Current Station
Personal Weather Station
Location: Horsham, PA
Elevation: 303 ft
Nearby Weather Stations

Elev 303 ft 40.19 °N, 75.13 °W | Updated 0 second ago

Clear
Clear
62.9 °F
Feels Like 62.9 °F
N
0.0
Wind Variable Wind from SSE
Gusts 0.0 mph

Today
High -- | Low -- °F
--% Chance of Precip.
Yesterday
High -- | Low -- °F
Precip. -- in
6:48 AM 6:55 PM
Waning Crescent, 0% visible
Pressure 30.34 in
Visibility 10.0 miles
Clouds Clear
Dew Point 49 °F
Humidity 61%
Rainfall 0.00 in
Snow Depth Not available.
UV 0 out of 12
Pollen 2.30 out of 12
Air Quality Not available.
Flu Activity Not available.
METAR KPNE 232254Z AUTO 14003KT 10SM CLR 19/05 A3034 RMK AO2 SLP274 T01940050 TSNO

More Conditions Fewer Conditions

Pressure 30.34 in
Visibility 10.0 miles
Clouds Clear
Dew Point 49 °F
Humidity 61%
Rainfall 0.00 in
Snow Depth Not available.
UV 0 out of 12
Pollen 2.30 out of 12
Air Quality Not available.
Flu Activity Not available.
METAR KPNE 232254Z AUTO 14003KT 10SM CLR 19/05 A3034 RMK AO2 SLP274 T01940050 TSNO

More Conditions Fewer Conditions

10-Day Weather Forecast

Almanac

Astronomy

Sep. 23, 2014 Rise Set
Actual Time 6:48 AM EDT 6:55 PM EDT
Civil Twilight 6:21 AM EDT 7:22 PM EDT
Nautical Twilight 5:50 AM EDT 7:54 PM EDT
Astronomical Twilight 5:17 AM EDT 8:26 PM EDT
Moon 6:10 AM EDT 6:33 PM EDT
Length of Visible Light 13h 01m
Length of Day
12h 06m
Tomorrow will be 2m 38s shorter.
Waning Crescent, 0% of the Moon is Illuminated
Today
Waning Crescent
Sep 24
New
Oct 1
First Quarter
Oct 8
Full
Oct 15
Last Quarter

Today's Extremes

State Highs State Lows

Community

WunderPhotos

Upload Photos

1,755,824 photos uploaded!

WunderBlogs® & News

Nearby

Snow Depth

Station Depth Elevation
No new snow has been reported.

Earthquake Activity

City Distance Mag. Time & Date
No recent earthquake activity has been reported nearby.
Minimum magnitude displayed is 2.5.

Coastal Water Temperatures

Place Temperature
No Stations Reporting

Nearby Weather Stations